sensor_id;sensor_type;location;lat;lon;timestamp;temperature;humidity
19930;DHT22;10127;47.780;9.606;2024-01-30T00:01:30;0.70;99.90
19930;DHT22;10127;47.780;9.606;2024-01-30T00:03:56;0.80;99.90
19930;DHT22;10127;47.780;9.606;2024-01-30T00:06:22;0.80;99.90
19930;DHT22;10127;47.780;9.606;2024-01-30T00:08:47;0.80;99.90
19930;DHT22;10127;47.780;9.606;2024-01-30T00:11:14;0.80;99.90
19930;DHT22;10127;47.780;9.606;2024-01-30T00:13:40;0.90;99.90
19930;DHT22;10127;47.780;9.606;2024-01-30T00:16:06;1.00;99.90
19930;DHT22;10127;47.780;9.606;2024-01-30T00:18:32;1.00;99.90
19930;DHT22;10127;47.780;9.606;2024-01-30T00:20:58;0.90;99.90
19930;DHT22;10127;47.780;9.606;2024-01-30T00:23:23;0.90;99.90
19930;DHT22;10127;47.780;9.606;2024-01-30T00:25:50;0.90;99.90
19930;DHT22;10127;47.780;9.606;2024-01-30T00:28:15;0.90;99.90
19930;DHT22;10127;47.780;9.606;2024-01-30T00:30:41;1.00;99.90
19930;DHT22;10127;47.780;9.606;2024-01-30T00:33:07;1.10;99.90
19930;DHT22;10127;47.780;9.606;2024-01-30T00:35:33;1.20;99.90
19930;DHT22;10127;47.780;9.606;2024-01-30T00:37:59;1.10;99.90
19930;DHT22;10127;47.780;9.606;2024-01-30T00:40:24;1.00;99.90
19930;DHT22;10127;47.780;9.606;2024-01-30T00:42:50;1.10;99.90
19930;DHT22;10127;47.780;9.606;2024-01-30T00:45:16;1.00;99.90
19930;DHT22;10127;47.780;9.606;2024-01-30T00:47:42;1.10;99.90
19930;DHT22;10127;47.780;9.606;2024-01-30T00:50:08;1.00;99.90
19930;DHT22;10127;47.780;9.606;2024-01-30T00:52:33;1.00;99.90
19930;DHT22;10127;47.780;9.606;2024-01-30T00:54:59;1.00;99.90
19930;DHT22;10127;47.780;9.606;2024-01-30T00:57:25;0.90;99.90
19930;DHT22;10127;47.780;9.606;2024-01-30T00:59:51;0.90;99.90
19930;DHT22;10127;47.780;9.606;2024-01-30T01:02:16;1.10;99.90
19930;DHT22;10127;47.780;9.606;2024-01-30T01:04:45;1.10;99.90
19930;DHT22;10127;47.780;9.606;2024-01-30T01:07:11;1.00;99.90
19930;DHT22;10127;47.780;9.606;2024-01-30T01:09:43;1.10;99.90
19930;DHT22;10127;47.780;9.606;2024-01-30T01:12:09;1.10;99.90
19930;DHT22;10127;47.780;9.606;2024-01-30T01:14:34;1.10;99.90
19930;DHT22;10127;47.780;9.606;2024-01-30T01:17:00;1.00;99.90
19930;DHT22;10127;47.780;9.606;2024-01-30T01:19:25;1.00;99.90
19930;DHT22;10127;47.780;9.606;2024-01-30T01:21:57;0.90;99.90
19930;DHT22;10127;47.780;9.606;2024-01-30T01:24:32;0.90;99.90
19930;DHT22;10127;47.780;9.606;2024-01-30T01:26:58;1.00;99.90
19930;DHT22;10127;47.780;9.606;2024-01-30T01:29:31;1.00;99.90
19930;DHT22;10127;47.780;9.606;2024-01-30T01:31:57;1.00;99.90
19930;DHT22;10127;47.780;9.606;2024-01-30T01:34:23;0.90;99.90
19930;DHT22;10127;47.780;9.606;2024-01-30T01:36:51;1.20;99.90
19930;DHT22;10127;47.780;9.606;2024-01-30T01:39:23;1.30;99.90
19930;DHT22;10127;47.780;9.606;2024-01-30T01:41:49;1.30;99.90
19930;DHT22;10127;47.780;9.606;2024-01-30T01:44:14;1.30;99.90
19930;DHT22;10127;47.780;9.606;2024-01-30T01:46:40;1.30;99.90
19930;DHT22;10127;47.780;9.606;2024-01-30T01:49:06;1.30;99.90
19930;DHT22;10127;47.780;9.606;2024-01-30T01:51:34;1.30;99.90
19930;DHT22;10127;47.780;9.606;2024-01-30T01:54:03;1.40;99.90
19930;DHT22;10127;47.780;9.606;2024-01-30T01:56:30;1.30;99.90
19930;DHT22;10127;47.780;9.606;2024-01-30T01:59:00;1.30;99.90
19930;DHT22;10127;47.780;9.606;2024-01-30T02:01:29;1.30;99.90
19930;DHT22;10127;47.780;9.606;2024-01-30T02:03:56;1.00;99.90
19930;DHT22;10127;47.780;9.606;2024-01-30T02:06:22;1.00;99.90
19930;DHT22;10127;47.780;9.606;2024-01-30T02:08:48;0.90;99.90
19930;DHT22;10127;47.780;9.606;2024-01-30T02:11:14;0.70;99.90
19930;DHT22;10127;47.780;9.606;2024-01-30T02:13:41;0.60;99.90
19930;DHT22;10127;47.780;9.606;2024-01-30T02:16:06;0.50;99.90
19930;DHT22;10127;47.780;9.606;2024-01-30T02:18:32;0.60;99.90
19930;DHT22;10127;47.780;9.606;2024-01-30T02:20:58;0.60;99.90
19930;DHT22;10127;47.780;9.606;2024-01-30T02:23:27;0.60;99.90
19930;DHT22;10127;47.780;9.606;2024-01-30T02:25:53;0.50;99.90
19930;DHT22;10127;47.780;9.606;2024-01-30T02:28:19;0.50;99.90
19930;DHT22;10127;47.780;9.606;2024-01-30T02:30:46;0.60;99.90
19930;DHT22;10127;47.780;9.606;2024-01-30T02:33:12;0.70;99.90
19930;DHT22;10127;47.780;9.606;2024-01-30T02:35:38;0.70;99.90
19930;DHT22;10127;47.780;9.606;2024-01-30T02:38:04;0.80;99.90
19930;DHT22;10127;47.780;9.606;2024-01-30T02:40:29;0.90;99.90
19930;DHT22;10127;47.780;9.606;2024-01-30T02:42:56;0.80;99.90
19930;DHT22;10127;47.780;9.606;2024-01-30T02:45:21;0.80;99.90
19930;DHT22;10127;47.780;9.606;2024-01-30T02:47:47;0.90;99.90
19930;DHT22;10127;47.780;9.606;2024-01-30T02:50:13;1.00;99.90
19930;DHT22;10127;47.780;9.606;2024-01-30T02:52:39;1.20;99.90
19930;DHT22;10127;47.780;9.606;2024-01-30T02:55:05;1.20;99.90
19930;DHT22;10127;47.780;9.606;2024-01-30T02:57:31;1.30;99.90
19930;DHT22;10127;47.780;9.606;2024-01-30T02:59:56;1.30;99.90
19930;DHT22;10127;47.780;9.606;2024-01-30T03:02:22;1.10;99.90
19930;DHT22;10127;47.780;9.606;2024-01-30T03:04:47;1.10;99.90
19930;DHT22;10127;47.780;9.606;2024-01-30T03:07:13;1.10;99.90
19930;DHT22;10127;47.780;9.606;2024-01-30T03:09:39;1.10;99.90
19930;DHT22;10127;47.780;9.606;2024-01-30T03:12:06;1.10;99.90
19930;DHT22;10127;47.780;9.606;2024-01-30T03:14:32;1.00;99.90
19930;DHT22;10127;47.780;9.606;2024-01-30T03:16:58;0.90;99.90
19930;DHT22;10127;47.780;9.606;2024-01-30T03:19:23;0.90;99.90
19930;DHT22;10127;47.780;9.606;2024-01-30T03:21:49;0.80;99.90
19930;DHT22;10127;47.780;9.606;2024-01-30T03:24:15;0.80;99.90
19930;DHT22;10127;47.780;9.606;2024-01-30T03:26:41;0.90;99.90
19930;DHT22;10127;47.780;9.606;2024-01-30T03:29:06;1.00;99.90
19930;DHT22;10127;47.780;9.606;2024-01-30T03:31:33;1.20;99.90
19930;DHT22;10127;47.780;9.606;2024-01-30T03:33:58;1.20;99.90
19930;DHT22;10127;47.780;9.606;2024-01-30T03:36:24;0.80;99.90
19930;DHT22;10127;47.780;9.606;2024-01-30T03:38:50;0.70;99.90
19930;DHT22;10127;47.780;9.606;2024-01-30T03:41:15;0.70;99.90
19930;DHT22;10127;47.780;9.606;2024-01-30T03:43:41;0.70;99.90
19930;DHT22;10127;47.780;9.606;2024-01-30T03:46:06;0.80;99.90
19930;DHT22;10127;47.780;9.606;2024-01-30T03:48:32;0.90;99.90
19930;DHT22;10127;47.780;9.606;2024-01-30T03:50:58;0.90;99.90
19930;DHT22;10127;47.780;9.606;2024-01-30T03:53:23;0.80;99.90
19930;DHT22;10127;47.780;9.606;2024-01-30T03:55:49;0.70;99.90
19930;DHT22;10127;47.780;9.606;2024-01-30T03:58:15;0.50;99.90
19930;DHT22;10127;47.780;9.606;2024-01-30T04:00:40;0.70;99.90
19930;DHT22;10127;47.780;9.606;2024-01-30T04:03:06;0.80;99.90
19930;DHT22;10127;47.780;9.606;2024-01-30T04:05:32;0.90;99.90
19930;DHT22;10127;47.780;9.606;2024-01-30T04:07:57;0.90;99.90
19930;DHT22;10127;47.780;9.606;2024-01-30T04:10:23;0.70;99.90
19930;DHT22;10127;47.780;9.606;2024-01-30T04:12:50;0.80;99.90
19930;DHT22;10127;47.780;9.606;2024-01-30T04:15:17;0.80;99.90
19930;DHT22;10127;47.780;9.606;2024-01-30T04:17:42;0.80;99.90
19930;DHT22;10127;47.780;9.606;2024-01-30T04:20:15;0.80;99.90
19930;DHT22;10127;47.780;9.606;2024-01-30T04:22:44;1.00;99.90
19930;DHT22;10127;47.780;9.606;2024-01-30T04:25:11;0.80;99.90
19930;DHT22;10127;47.780;9.606;2024-01-30T04:27:36;0.90;99.90
19930;DHT22;10127;47.780;9.606;2024-01-30T04:30:02;0.90;99.90
19930;DHT22;10127;47.780;9.606;2024-01-30T04:32:28;1.00;99.90
19930;DHT22;10127;47.780;9.606;2024-01-30T04:34:53;1.00;99.90
19930;DHT22;10127;47.780;9.606;2024-01-30T04:37:19;0.90;99.90
19930;DHT22;10127;47.780;9.606;2024-01-30T04:39:45;0.90;99.90
19930;DHT22;10127;47.780;9.606;2024-01-30T04:42:10;1.00;99.90
19930;DHT22;10127;47.780;9.606;2024-01-30T04:44:36;0.90;99.90
19930;DHT22;10127;47.780;9.606;2024-01-30T04:47:01;0.80;99.90
19930;DHT22;10127;47.780;9.606;2024-01-30T04:49:27;0.80;99.90
19930;DHT22;10127;47.780;9.606;2024-01-30T04:51:54;0.70;99.90
19930;DHT22;10127;47.780;9.606;2024-01-30T04:54:20;0.80;99.90
19930;DHT22;10127;47.780;9.606;2024-01-30T04:56:45;0.70;99.90
19930;DHT22;10127;47.780;9.606;2024-01-30T04:59:12;0.70;99.90
19930;DHT22;10127;47.780;9.606;2024-01-30T05:01:37;0.70;99.90
19930;DHT22;10127;47.780;9.606;2024-01-30T05:04:03;0.80;99.90
19930;DHT22;10127;47.780;9.606;2024-01-30T05:06:29;0.90;99.90
19930;DHT22;10127;47.780;9.606;2024-01-30T05:08:55;0.90;99.90
19930;DHT22;10127;47.780;9.606;2024-01-30T05:11:21;0.90;99.90
19930;DHT22;10127;47.780;9.606;2024-01-30T05:13:46;0.80;99.90
19930;DHT22;10127;47.780;9.606;2024-01-30T05:16:13;0.90;99.90
19930;DHT22;10127;47.780;9.606;2024-01-30T05:18:38;0.90;99.90
19930;DHT22;10127;47.780;9.606;2024-01-30T05:21:05;0.90;99.90
19930;DHT22;10127;47.780;9.606;2024-01-30T05:23:30;0.90;99.90
19930;DHT22;10127;47.780;9.606;2024-01-30T05:25:56;0.80;99.90
19930;DHT22;10127;47.780;9.606;2024-01-30T05:28:21;0.80;99.90
19930;DHT22;10127;47.780;9.606;2024-01-30T05:30:47;0.90;99.90
19930;DHT22;10127;47.780;9.606;2024-01-30T05:33:13;0.90;99.90
19930;DHT22;10127;47.780;9.606;2024-01-30T05:35:38;0.70;99.90
19930;DHT22;10127;47.780;9.606;2024-01-30T05:38:04;0.70;99.90
19930;DHT22;10127;47.780;9.606;2024-01-30T05:40:30;0.80;99.90
19930;DHT22;10127;47.780;9.606;2024-01-30T05:42:56;0.80;99.90
19930;DHT22;10127;47.780;9.606;2024-01-30T05:45:23;1.00;99.90
19930;DHT22;10127;47.780;9.606;2024-01-30T05:47:49;1.10;99.90
19930;DHT22;10127;47.780;9.606;2024-01-30T05:50:15;1.00;99.90
19930;DHT22;10127;47.780;9.606;2024-01-30T05:52:40;0.60;99.90
19930;DHT22;10127;47.780;9.606;2024-01-30T05:55:06;0.60;99.90
19930;DHT22;10127;47.780;9.606;2024-01-30T05:57:32;0.70;99.90
19930;DHT22;10127;47.780;9.606;2024-01-30T05:59:57;0.70;99.90
19930;DHT22;10127;47.780;9.606;2024-01-30T06:02:23;0.70;99.90
19930;DHT22;10127;47.780;9.606;2024-01-30T06:04:48;0.70;99.90
19930;DHT22;10127;47.780;9.606;2024-01-30T06:07:14;0.50;99.90
19930;DHT22;10127;47.780;9.606;2024-01-30T06:09:40;0.60;99.90
19930;DHT22;10127;47.780;9.606;2024-01-30T06:12:06;0.60;99.90
19930;DHT22;10127;47.780;9.606;2024-01-30T06:14:32;0.60;99.90
19930;DHT22;10127;47.780;9.606;2024-01-30T06:16:59;0.70;99.90
19930;DHT22;10127;47.780;9.606;2024-01-30T06:19:24;0.80;99.90
19930;DHT22;10127;47.780;9.606;2024-01-30T06:21:50;0.90;99.90
19930;DHT22;10127;47.780;9.606;2024-01-30T06:24:15;0.90;99.90
19930;DHT22;10127;47.780;9.606;2024-01-30T06:26:41;0.90;99.90
19930;DHT22;10127;47.780;9.606;2024-01-30T06:29:07;1.00;99.90
19930;DHT22;10127;47.780;9.606;2024-01-30T06:31:33;1.10;99.90
19930;DHT22;10127;47.780;9.606;2024-01-30T06:33:58;1.00;99.90
19930;DHT22;10127;47.780;9.606;2024-01-30T06:36:24;0.70;99.90
19930;DHT22;10127;47.780;9.606;2024-01-30T06:38:50;0.40;99.90
19930;DHT22;10127;47.780;9.606;2024-01-30T06:41:15;0.60;99.90
19930;DHT22;10127;47.780;9.606;2024-01-30T06:43:41;0.60;99.90
19930;DHT22;10127;47.780;9.606;2024-01-30T06:46:06;0.80;99.90
19930;DHT22;10127;47.780;9.606;2024-01-30T06:48:32;0.90;99.90
19930;DHT22;10127;47.780;9.606;2024-01-30T06:50:58;1.10;99.90
19930;DHT22;10127;47.780;9.606;2024-01-30T06:53:23;1.00;99.90
19930;DHT22;10127;47.780;9.606;2024-01-30T06:55:51;1.00;99.90
19930;DHT22;10127;47.780;9.606;2024-01-30T06:58:17;1.10;99.90
19930;DHT22;10127;47.780;9.606;2024-01-30T07:00:43;1.00;99.90
19930;DHT22;10127;47.780;9.606;2024-01-30T07:03:08;1.10;99.90
19930;DHT22;10127;47.780;9.606;2024-01-30T07:05:34;1.20;99.90
19930;DHT22;10127;47.780;9.606;2024-01-30T07:07:59;1.40;99.90
19930;DHT22;10127;47.780;9.606;2024-01-30T07:10:25;1.30;99.90
19930;DHT22;10127;47.780;9.606;2024-01-30T07:12:50;1.40;99.90
19930;DHT22;10127;47.780;9.606;2024-01-30T07:15:16;1.40;99.90
19930;DHT22;10127;47.780;9.606;2024-01-30T07:17:45;1.50;99.90
19930;DHT22;10127;47.780;9.606;2024-01-30T07:20:11;1.40;99.90
19930;DHT22;10127;47.780;9.606;2024-01-30T07:22:37;1.30;99.90
19930;DHT22;10127;47.780;9.606;2024-01-30T07:25:03;1.00;99.90
19930;DHT22;10127;47.780;9.606;2024-01-30T07:27:28;0.90;99.90
19930;DHT22;10127;47.780;9.606;2024-01-30T07:29:54;0.90;99.90
19930;DHT22;10127;47.780;9.606;2024-01-30T07:32:19;1.20;99.90
19930;DHT22;10127;47.780;9.606;2024-01-30T07:34:45;0.90;99.90
19930;DHT22;10127;47.780;9.606;2024-01-30T07:37:11;0.80;99.90
19930;DHT22;10127;47.780;9.606;2024-01-30T07:39:40;0.80;99.90
19930;DHT22;10127;47.780;9.606;2024-01-30T07:42:06;0.60;99.90
19930;DHT22;10127;47.780;9.606;2024-01-30T07:44:32;0.70;99.90
19930;DHT22;10127;47.780;9.606;2024-01-30T07:46:57;0.90;99.90
19930;DHT22;10127;47.780;9.606;2024-01-30T07:49:23;0.90;99.90
19930;DHT22;10127;47.780;9.606;2024-01-30T07:51:49;0.90;99.90
19930;DHT22;10127;47.780;9.606;2024-01-30T07:54:14;1.10;99.90
19930;DHT22;10127;47.780;9.606;2024-01-30T07:56:40;1.10;99.90
19930;DHT22;10127;47.780;9.606;2024-01-30T07:59:09;1.20;99.90
19930;DHT22;10127;47.780;9.606;2024-01-30T08:01:34;1.10;99.90
19930;DHT22;10127;47.780;9.606;2024-01-30T08:04:00;1.10;99.90
19930;DHT22;10127;47.780;9.606;2024-01-30T08:06:25;1.00;99.90
19930;DHT22;10127;47.780;9.606;2024-01-30T08:08:51;1.10;99.90
19930;DHT22;10127;47.780;9.606;2024-01-30T08:11:20;1.20;99.90
19930;DHT22;10127;47.780;9.606;2024-01-30T08:13:46;1.10;99.90
19930;DHT22;10127;47.780;9.606;2024-01-30T08:16:11;1.30;99.90
19930;DHT22;10127;47.780;9.606;2024-01-30T08:18:37;1.20;99.90
19930;DHT22;10127;47.780;9.606;2024-01-30T08:21:03;1.20;99.90
19930;DHT22;10127;47.780;9.606;2024-01-30T08:23:28;1.20;99.90
19930;DHT22;10127;47.780;9.606;2024-01-30T08:25:54;1.00;99.90
19930;DHT22;10127;47.780;9.606;2024-01-30T08:28:20;0.90;99.90
19930;DHT22;10127;47.780;9.606;2024-01-30T08:30:45;1.10;99.90
19930;DHT22;10127;47.780;9.606;2024-01-30T08:33:11;1.00;99.90
19930;DHT22;10127;47.780;9.606;2024-01-30T08:35:36;0.80;99.90
19930;DHT22;10127;47.780;9.606;2024-01-30T08:38:02;1.00;99.90
19930;DHT22;10127;47.780;9.606;2024-01-30T08:40:29;1.10;99.90
19930;DHT22;10127;47.780;9.606;2024-01-30T08:42:55;1.10;99.90
19930;DHT22;10127;47.780;9.606;2024-01-30T08:45:20;1.40;99.90
19930;DHT22;10127;47.780;9.606;2024-01-30T08:47:46;1.40;99.90
19930;DHT22;10127;47.780;9.606;2024-01-30T08:50:11;1.50;99.90
19930;DHT22;10127;47.780;9.606;2024-01-30T08:52:37;1.50;99.90
19930;DHT22;10127;47.780;9.606;2024-01-30T08:55:03;1.60;99.90
19930;DHT22;10127;47.780;9.606;2024-01-30T08:57:30;1.50;99.90
19930;DHT22;10127;47.780;9.606;2024-01-30T08:59:56;1.60;99.90
19930;DHT22;10127;47.780;9.606;2024-01-30T09:02:21;1.50;99.90
19930;DHT22;10127;47.780;9.606;2024-01-30T09:04:47;1.60;99.90
19930;DHT22;10127;47.780;9.606;2024-01-30T09:07:13;1.60;99.90
19930;DHT22;10127;47.780;9.606;2024-01-30T09:09:39;1.60;99.90
19930;DHT22;10127;47.780;9.606;2024-01-30T09:12:06;1.50;99.90
19930;DHT22;10127;47.780;9.606;2024-01-30T09:14:35;1.60;99.90
19930;DHT22;10127;47.780;9.606;2024-01-30T09:17:01;1.60;99.90
19930;DHT22;10127;47.780;9.606;2024-01-30T09:19:28;1.70;99.90
19930;DHT22;10127;47.780;9.606;2024-01-30T09:21:54;1.80;99.90
19930;DHT22;10127;47.780;9.606;2024-01-30T09:24:19;1.70;99.90
19930;DHT22;10127;47.780;9.606;2024-01-30T09:26:45;1.80;99.90
19930;DHT22;10127;47.780;9.606;2024-01-30T09:29:10;1.80;99.90
19930;DHT22;10127;47.780;9.606;2024-01-30T09:31:36;2.00;99.90
19930;DHT22;10127;47.780;9.606;2024-01-30T09:34:02;2.10;99.90
19930;DHT22;10127;47.780;9.606;2024-01-30T09:36:28;1.90;99.90
19930;DHT22;10127;47.780;9.606;2024-01-30T09:38:54;2.00;99.90
19930;DHT22;10127;47.780;9.606;2024-01-30T09:41:20;2.20;99.90
19930;DHT22;10127;47.780;9.606;2024-01-30T09:43:50;2.30;99.90
19930;DHT22;10127;47.780;9.606;2024-01-30T09:46:17;2.20;99.90
19930;DHT22;10127;47.780;9.606;2024-01-30T09:48:46;2.20;99.90
19930;DHT22;10127;47.780;9.606;2024-01-30T09:51:14;2.40;99.90
19930;DHT22;10127;47.780;9.606;2024-01-30T09:53:41;2.50;99.90
19930;DHT22;10127;47.780;9.606;2024-01-30T09:56:07;2.70;99.90
19930;DHT22;10127;47.780;9.606;2024-01-30T09:58:33;2.60;99.90
19930;DHT22;10127;47.780;9.606;2024-01-30T10:00:58;2.60;99.90
19930;DHT22;10127;47.780;9.606;2024-01-30T10:03:24;2.80;99.90
19930;DHT22;10127;47.780;9.606;2024-01-30T10:05:51;3.10;99.90
19930;DHT22;10127;47.780;9.606;2024-01-30T10:08:20;3.50;99.90
19930;DHT22;10127;47.780;9.606;2024-01-30T10:10:47;3.40;99.90
19930;DHT22;10127;47.780;9.606;2024-01-30T10:13:13;3.40;99.90
19930;DHT22;10127;47.780;9.606;2024-01-30T10:15:47;3.20;99.90
19930;DHT22;10127;47.780;9.606;2024-01-30T10:18:13;3.40;99.90
19930;DHT22;10127;47.780;9.606;2024-01-30T10:20:39;3.60;99.90
19930;DHT22;10127;47.780;9.606;2024-01-30T10:23:04;3.70;99.90
19930;DHT22;10127;47.780;9.606;2024-01-30T10:25:33;3.70;99.90
19930;DHT22;10127;47.780;9.606;2024-01-30T10:27:59;3.60;99.90
19930;DHT22;10127;47.780;9.606;2024-01-30T10:30:31;3.70;99.90
19930;DHT22;10127;47.780;9.606;2024-01-30T10:32:57;3.70;99.90
19930;DHT22;10127;47.780;9.606;2024-01-30T10:35:22;3.90;99.90
19930;DHT22;10127;47.780;9.606;2024-01-30T10:37:48;4.00;99.90
19930;DHT22;10127;47.780;9.606;2024-01-30T10:40:15;4.10;99.90
19930;DHT22;10127;47.780;9.606;2024-01-30T10:42:44;3.90;99.90
19930;DHT22;10127;47.780;9.606;2024-01-30T10:45:12;3.60;99.90
19930;DHT22;10127;47.780;9.606;2024-01-30T10:47:40;3.40;99.90
19930;DHT22;10127;47.780;9.606;2024-01-30T10:50:07;3.50;99.90
19930;DHT22;10127;47.780;9.606;2024-01-30T10:52:34;3.60;99.90
19930;DHT22;10127;47.780;9.606;2024-01-30T10:55:00;3.80;99.90
19930;DHT22;10127;47.780;9.606;2024-01-30T10:57:26;3.70;99.90
19930;DHT22;10127;47.780;9.606;2024-01-30T10:59:56;3.70;99.90
19930;DHT22;10127;47.780;9.606;2024-01-30T11:02:28;3.80;99.90
19930;DHT22;10127;47.780;9.606;2024-01-30T11:04:57;3.90;99.90
19930;DHT22;10127;47.780;9.606;2024-01-30T11:07:30;4.00;99.90
19930;DHT22;10127;47.780;9.606;2024-01-30T11:12:25;4.20;99.90
19930;DHT22;10127;47.780;9.606;2024-01-30T11:15:12;4.30;99.90
19930;DHT22;10127;47.780;9.606;2024-01-30T11:20:21;4.00;99.90
19930;DHT22;10127;47.780;9.606;2024-01-30T11:22:56;3.80;99.90
19930;DHT22;10127;47.780;9.606;2024-01-30T11:25:23;4.00;99.90
19930;DHT22;10127;47.780;9.606;2024-01-30T11:27:53;4.30;99.90
19930;DHT22;10127;47.780;9.606;2024-01-30T11:30:26;4.50;99.90
19930;DHT22;10127;47.780;9.606;2024-01-30T11:35:25;4.70;99.90
19930;DHT22;10127;47.780;9.606;2024-01-30T11:37:51;4.70;99.90
19930;DHT22;10127;47.780;9.606;2024-01-30T11:40:17;4.60;99.90
19930;DHT22;10127;47.780;9.606;2024-01-30T11:42:44;4.70;99.90
19930;DHT22;10127;47.780;9.606;2024-01-30T11:45:10;4.80;99.90
19930;DHT22;10127;47.780;9.606;2024-01-30T11:47:37;4.80;99.90
19930;DHT22;10127;47.780;9.606;2024-01-30T11:50:06;4.80;99.90
19930;DHT22;10127;47.780;9.606;2024-01-30T11:52:33;4.90;99.90
19930;DHT22;10127;47.780;9.606;2024-01-30T11:55:00;5.10;99.90
19930;DHT22;10127;47.780;9.606;2024-01-30T11:57:27;5.10;99.90
19930;DHT22;10127;47.780;9.606;2024-01-30T11:59:53;5.00;99.90
19930;DHT22;10127;47.780;9.606;2024-01-30T12:02:19;4.90;99.90
19930;DHT22;10127;47.780;9.606;2024-01-30T12:04:45;4.90;99.90
19930;DHT22;10127;47.780;9.606;2024-01-30T12:07:11;5.30;99.90
19930;DHT22;10127;47.780;9.606;2024-01-30T12:09:39;5.40;99.90
19930;DHT22;10127;47.780;9.606;2024-01-30T12:12:06;5.20;99.90
19930;DHT22;10127;47.780;9.606;2024-01-30T12:14:32;5.40;99.90
19930;DHT22;10127;47.780;9.606;2024-01-30T12:16:58;5.50;99.90
19930;DHT22;10127;47.780;9.606;2024-01-30T12:19:26;5.40;99.90
19930;DHT22;10127;47.780;9.606;2024-01-30T12:21:58;5.30;99.90
19930;DHT22;10127;47.780;9.606;2024-01-30T12:24:27;5.30;99.90
19930;DHT22;10127;47.780;9.606;2024-01-30T12:26:59;5.50;99.90
19930;DHT22;10127;47.780;9.606;2024-01-30T12:29:25;5.60;99.90
19930;DHT22;10127;47.780;9.606;2024-01-30T12:31:54;5.60;99.90
19930;DHT22;10127;47.780;9.606;2024-01-30T12:34:20;5.70;99.90
19930;DHT22;10127;47.780;9.606;2024-01-30T12:36:47;5.70;99.90
19930;DHT22;10127;47.780;9.606;2024-01-30T12:39:14;5.70;99.90
19930;DHT22;10127;47.780;9.606;2024-01-30T12:41:40;5.60;99.90
19930;DHT22;10127;47.780;9.606;2024-01-30T12:44:06;5.70;99.90
19930;DHT22;10127;47.780;9.606;2024-01-30T12:46:34;5.90;99.90
19930;DHT22;10127;47.780;9.606;2024-01-30T12:48:59;6.00;99.90
19930;DHT22;10127;47.780;9.606;2024-01-30T12:51:25;6.00;99.90
19930;DHT22;10127;47.780;9.606;2024-01-30T12:53:51;6.00;99.90
19930;DHT22;10127;47.780;9.606;2024-01-30T12:56:16;6.00;99.90
19930;DHT22;10127;47.780;9.606;2024-01-30T12:58:42;6.10;99.90
19930;DHT22;10127;47.780;9.606;2024-01-30T13:01:08;6.20;99.90
19930;DHT22;10127;47.780;9.606;2024-01-30T13:03:34;6.10;99.90
19930;DHT22;10127;47.780;9.606;2024-01-30T13:06:00;6.30;99.90
19930;DHT22;10127;47.780;9.606;2024-01-30T13:08:26;6.30;99.90
19930;DHT22;10127;47.780;9.606;2024-01-30T13:10:51;6.30;99.90
19930;DHT22;10127;47.780;9.606;2024-01-30T13:13:17;6.40;99.90
19930;DHT22;10127;47.780;9.606;2024-01-30T13:15:42;6.40;99.90
19930;DHT22;10127;47.780;9.606;2024-01-30T13:18:08;6.50;99.90
19930;DHT22;10127;47.780;9.606;2024-01-30T13:20:34;6.40;99.90
19930;DHT22;10127;47.780;9.606;2024-01-30T13:22:59;6.30;99.90
19930;DHT22;10127;47.780;9.606;2024-01-30T13:25:25;6.20;99.90
19930;DHT22;10127;47.780;9.606;2024-01-30T13:27:51;6.20;99.90
19930;DHT22;10127;47.780;9.606;2024-01-30T13:30:16;6.40;99.90
19930;DHT22;10127;47.780;9.606;2024-01-30T13:32:42;6.50;99.90
19930;DHT22;10127;47.780;9.606;2024-01-30T13:35:09;6.60;99.90
19930;DHT22;10127;47.780;9.606;2024-01-30T13:37:35;6.70;99.90
19930;DHT22;10127;47.780;9.606;2024-01-30T13:40:04;6.80;99.90
19930;DHT22;10127;47.780;9.606;2024-01-30T13:42:32;6.80;99.90
19930;DHT22;10127;47.780;9.606;2024-01-30T13:44:58;6.70;99.90
19930;DHT22;10127;47.780;9.606;2024-01-30T13:47:23;6.70;99.90
19930;DHT22;10127;47.780;9.606;2024-01-30T13:49:49;6.80;99.90
19930;DHT22;10127;47.780;9.606;2024-01-30T13:52:15;6.90;99.90
19930;DHT22;10127;47.780;9.606;2024-01-30T13:54:40;6.90;99.90
19930;DHT22;10127;47.780;9.606;2024-01-30T13:57:06;7.00;99.90
19930;DHT22;10127;47.780;9.606;2024-01-30T13:59:33;7.10;99.90
19930;DHT22;10127;47.780;9.606;2024-01-30T14:01:58;7.10;99.90
19930;DHT22;10127;47.780;9.606;2024-01-30T14:04:24;7.20;99.90
19930;DHT22;10127;47.780;9.606;2024-01-30T14:06:51;7.30;99.90
19930;DHT22;10127;47.780;9.606;2024-01-30T14:09:16;7.40;99.90
19930;DHT22;10127;47.780;9.606;2024-01-30T14:11:42;7.70;99.90
19930;DHT22;10127;47.780;9.606;2024-01-30T14:14:09;7.80;99.90
19930;DHT22;10127;47.780;9.606;2024-01-30T14:16:34;7.80;99.90
19930;DHT22;10127;47.780;9.606;2024-01-30T14:19:00;7.70;99.90
19930;DHT22;10127;47.780;9.606;2024-01-30T14:21:26;7.40;99.90
19930;DHT22;10127;47.780;9.606;2024-01-30T14:23:51;7.40;99.90
19930;DHT22;10127;47.780;9.606;2024-01-30T14:26:17;7.50;99.90
19930;DHT22;10127;47.780;9.606;2024-01-30T14:28:43;7.50;99.90
19930;DHT22;10127;47.780;9.606;2024-01-30T14:31:09;7.60;99.90
19930;DHT22;10127;47.780;9.606;2024-01-30T14:33:34;7.40;99.90
19930;DHT22;10127;47.780;9.606;2024-01-30T14:36:00;7.20;99.90
19930;DHT22;10127;47.780;9.606;2024-01-30T14:38:25;7.20;99.90
19930;DHT22;10127;47.780;9.606;2024-01-30T14:40:51;7.20;99.90
19930;DHT22;10127;47.780;9.606;2024-01-30T14:43:17;7.40;99.90
19930;DHT22;10127;47.780;9.606;2024-01-30T14:45:42;7.40;99.90
19930;DHT22;10127;47.780;9.606;2024-01-30T14:48:11;7.20;99.90
19930;DHT22;10127;47.780;9.606;2024-01-30T14:50:36;7.10;99.90
19930;DHT22;10127;47.780;9.606;2024-01-30T14:53:03;7.00;99.90
19930;DHT22;10127;47.780;9.606;2024-01-30T14:55:28;7.20;99.90
19930;DHT22;10127;47.780;9.606;2024-01-30T14:57:57;7.10;99.90
19930;DHT22;10127;47.780;9.606;2024-01-30T15:00:24;7.00;99.90
19930;DHT22;10127;47.780;9.606;2024-01-30T15:02:50;7.10;99.90
19930;DHT22;10127;47.780;9.606;2024-01-30T15:05:16;7.10;99.90
19930;DHT22;10127;47.780;9.606;2024-01-30T15:07:41;7.00;99.90
19930;DHT22;10127;47.780;9.606;2024-01-30T15:10:09;7.10;99.90
19930;DHT22;10127;47.780;9.606;2024-01-30T15:12:35;7.20;99.90
19930;DHT22;10127;47.780;9.606;2024-01-30T15:15:01;7.10;99.90
19930;DHT22;10127;47.780;9.606;2024-01-30T15:17:26;7.00;99.90
19930;DHT22;10127;47.780;9.606;2024-01-30T15:19:52;6.90;99.90
19930;DHT22;10127;47.780;9.606;2024-01-30T15:22:17;6.70;99.90
19930;DHT22;10127;47.780;9.606;2024-01-30T15:24:43;6.60;99.90
19930;DHT22;10127;47.780;9.606;2024-01-30T15:27:09;6.50;99.90
19930;DHT22;10127;47.780;9.606;2024-01-30T15:29:34;6.40;99.90
19930;DHT22;10127;47.780;9.606;2024-01-30T15:32:00;6.30;99.90
19930;DHT22;10127;47.780;9.606;2024-01-30T15:34:25;6.20;99.90
19930;DHT22;10127;47.780;9.606;2024-01-30T15:36:51;6.20;99.90
19930;DHT22;10127;47.780;9.606;2024-01-30T15:39:17;6.20;99.90
19930;DHT22;10127;47.780;9.606;2024-01-30T15:41:43;6.20;99.90
19930;DHT22;10127;47.780;9.606;2024-01-30T15:44:09;6.20;99.90
19930;DHT22;10127;47.780;9.606;2024-01-30T15:46:35;6.20;99.90